Strona główna
METAR-TAF:

METAR-TAF

Lotnisko :

Port lotniczy Tartu

Tartu, Estonia

Szerokość geograficzna: 58-18N, Długość geograficzna: 026-44E, wysokość: 59 m

Aktualna obserwacja pogody

Raport powstał 52 minut temu, godzina 00:50 UTC
Wiatr 3 kt od północny wschód
Temperatura 11°C
Wilgotność 66%
Ciśnienie 1020 hPa
Widzialność 10 km lub więcej

METAR: EETU 180050Z AUTO 05003KT 9999 NCD 11/05 Q1020

czas: 04:42 (01:42 UTC)


TAF: brakujący

Obserwacja i prognoza pogody dla ponad 4000 lotnisk (raport METAR i TAF).

Dostępne stacje oznaczono żółtymi i czerwonymi punktami na mapie.

Najedź kursorem aby zobaczyć nazwę stacji.

Kliknij aby zobaczyć obserwacje i prognozy pogody.

Aby zmienić mapę: kliknij na zielony przycisk z czarnym krzyżykiem, aby powiększyć; na zielony przycisk z myślnikiem, aby pomniejszyć; na zielone strzałki, aby przejść do map sąsiednich.


METAR-TAF: